createdAt,value
2019-04-29T00:00:53.517Z,47.40
2019-04-29T00:03:20.660Z,47.40
2019-04-29T00:05:47.825Z,47.50
2019-04-29T00:08:18.670Z,47.50
2019-04-29T00:10:45.919Z,47.50
2019-04-29T00:13:13.698Z,47.50
2019-04-29T00:15:46.439Z,47.50
2019-04-29T00:18:18.233Z,47.50
2019-04-29T00:20:47.382Z,47.50
2019-04-29T00:23:15.088Z,47.50
2019-04-29T00:25:42.326Z,47.50
2019-04-29T00:28:09.434Z,47.50
2019-04-29T00:30:36.627Z,47.50
2019-04-29T00:33:03.705Z,47.50
2019-04-29T00:35:30.846Z,47.50
2019-04-29T00:38:33.766Z,47.40
2019-04-29T00:41:07.429Z,47.50
2019-04-29T00:43:39.287Z,47.50
2019-04-29T00:46:06.398Z,47.50
2019-04-29T00:48:33.588Z,47.60
2019-04-29T00:51:00.704Z,47.50
2019-04-29T00:53:27.883Z,47.50
2019-04-29T00:55:55.202Z,47.50
2019-04-29T00:58:22.353Z,47.50
2019-04-29T01:00:49.559Z,47.50
2019-04-29T01:03:16.704Z,47.50
2019-04-29T01:05:45.073Z,47.50
2019-04-29T01:08:12.176Z,47.50
2019-04-29T01:10:39.362Z,47.50
2019-04-29T01:13:06.575Z,47.50
2019-04-29T01:15:33.669Z,47.50
2019-04-29T01:18:01.181Z,47.50
2019-04-29T01:20:28.393Z,47.50
2019-04-29T01:22:55.627Z,47.50
2019-04-29T01:25:22.812Z,47.50
2019-04-29T01:27:54.611Z,47.50
2019-04-29T01:30:33.346Z,47.50
2019-04-29T01:33:01.059Z,47.50
2019-04-29T01:35:28.248Z,47.50
2019-04-29T01:37:55.380Z,47.60
2019-04-29T01:40:28.375Z,47.50
2019-04-29T01:42:55.485Z,48.20
2019-04-29T01:45:22.623Z,47.70
2019-04-29T01:47:49.839Z,47.60
2019-04-29T01:50:17.051Z,47.60
2019-04-29T01:52:44.199Z,47.60
2019-04-29T01:55:11.508Z,47.70
2019-04-29T01:57:38.688Z,47.70
2019-04-29T02:00:05.881Z,47.60
2019-04-29T02:02:33.163Z,48.40
2019-04-29T02:05:00.365Z,47.80
2019-04-29T02:07:27.535Z,47.80
2019-04-29T02:10:01.066Z,47.80
2019-04-29T02:12:28.216Z,47.80
2019-04-29T02:14:55.436Z,47.80
2019-04-29T02:17:22.607Z,47.80
2019-04-29T02:19:49.788Z,47.70
2019-04-29T02:22:21.569Z,47.80
2019-04-29T02:24:53.398Z,47.80
2019-04-29T02:27:20.493Z,47.80
2019-04-29T02:29:47.688Z,47.80
2019-04-29T02:32:14.782Z,47.80
2019-04-29T02:34:42.007Z,47.90
2019-04-29T02:37:09.209Z,47.90
2019-04-29T02:39:40.013Z,47.80
2019-04-29T02:43:09.710Z,47.90
2019-04-29T02:45:36.848Z,47.90
2019-04-29T02:48:03.946Z,47.90
2019-04-29T02:50:31.105Z,47.90
2019-04-29T02:52:58.284Z,48.00
2019-04-29T02:55:29.149Z,47.90
2019-04-29T02:58:04.621Z,47.90
2019-04-29T03:00:39.332Z,47.90
2019-04-29T03:03:11.320Z,48.00
2019-04-29T03:05:42.530Z,47.90
2019-04-29T03:08:09.697Z,47.90
2019-04-29T03:10:36.909Z,47.90
2019-04-29T03:13:04.354Z,48.00
2019-04-29T03:15:31.682Z,48.00
2019-04-29T03:17:58.843Z,48.00
2019-04-29T03:20:29.470Z,48.00
2019-04-29T03:23:02.360Z,48.00
2019-04-29T03:25:29.522Z,48.00
2019-04-29T03:27:56.752Z,48.00
2019-04-29T03:30:23.946Z,48.00
2019-04-29T03:32:51.116Z,48.00
2019-04-29T03:35:18.267Z,48.00
2019-04-29T03:37:45.540Z,48.00
2019-04-29T03:40:12.735Z,48.60
2019-04-29T03:42:39.867Z,48.00
2019-04-29T03:45:07.062Z,48.10
2019-04-29T03:47:34.309Z,48.10
2019-04-29T03:50:01.467Z,48.00
2019-04-29T03:52:28.616Z,48.10
2019-04-29T03:54:55.859Z,48.20
2019-04-29T03:57:23.084Z,48.10
2019-04-29T03:59:50.246Z,48.10
2019-04-29T04:04:26.217Z,48.10
2019-04-29T04:06:58.866Z,48.10
2019-04-29T04:09:28.699Z,48.20
2019-04-29T04:11:55.888Z,48.20
2019-04-29T04:14:23.073Z,48.10
2019-04-29T04:17:01.676Z,48.20
2019-04-29T04:19:29.223Z,48.20
2019-04-29T04:21:56.373Z,48.20
2019-04-29T04:24:23.526Z,48.20
2019-04-29T04:26:50.718Z,48.20
2019-04-29T04:29:17.855Z,48.30
2019-04-29T04:31:44.984Z,48.20
2019-04-29T04:34:12.120Z,48.20
2019-04-29T04:36:39.311Z,48.20
2019-04-29T04:39:06.836Z,48.20
2019-04-29T04:41:33.987Z,48.20
2019-04-29T04:44:01.079Z,48.30
2019-04-29T04:46:28.248Z,48.30
2019-04-29T04:48:55.301Z,48.30
2019-04-29T04:51:22.429Z,48.20
2019-04-29T04:53:49.605Z,48.20
2019-04-29T04:56:16.784Z,48.30
2019-04-29T04:58:43.940Z,48.30
2019-04-29T05:01:11.100Z,48.30
2019-04-29T05:03:38.395Z,48.40
2019-04-29T05:06:06.246Z,48.40
2019-04-29T05:08:33.527Z,48.40
2019-04-29T05:11:00.692Z,48.40
2019-04-29T05:13:28.849Z,48.40
2019-04-29T05:15:55.455Z,48.40
2019-04-29T05:18:22.659Z,48.40
2019-04-29T05:20:50.465Z,48.40
2019-04-29T05:23:17.624Z,48.40
2019-04-29T05:25:44.777Z,48.50
2019-04-29T05:28:11.918Z,48.50
2019-04-29T05:30:39.096Z,48.60
2019-04-29T05:33:06.339Z,49.20
2019-04-29T05:35:41.042Z,48.60
2019-04-29T05:38:19.268Z,48.50
2019-04-29T05:40:49.517Z,48.50
2019-04-29T05:43:17.921Z,48.50
2019-04-29T05:45:49.700Z,48.50
2019-04-29T05:48:16.935Z,48.60
2019-04-29T05:50:53.173Z,48.60
2019-04-29T05:53:24.277Z,48.60
2019-04-29T05:55:52.618Z,48.60
2019-04-29T05:58:18.711Z,48.70
2019-04-29T06:00:53.093Z,48.60
2019-04-29T06:03:20.595Z,48.50
2019-04-29T06:05:47.746Z,48.50
2019-04-29T06:08:14.887Z,48.60
2019-04-29T06:10:42.293Z,48.60
2019-04-29T06:13:09.811Z,48.70
2019-04-29T06:15:36.968Z,48.70
2019-04-29T06:18:04.166Z,48.70
2019-04-29T06:20:31.328Z,48.70
2019-04-29T06:22:58.536Z,48.70
2019-04-29T06:25:25.810Z,48.70
2019-04-29T06:27:52.955Z,48.70
2019-04-29T06:30:20.135Z,48.80
2019-04-29T06:32:47.332Z,48.70
2019-04-29T06:35:15.426Z,48.70
2019-04-29T06:37:41.645Z,48.70
2019-04-29T06:40:08.797Z,48.80
2019-04-29T06:42:36.037Z,48.80
2019-04-29T06:45:03.781Z,48.80
2019-04-29T06:47:30.934Z,48.80
2019-04-29T06:49:58.079Z,48.80
2019-04-29T06:52:25.275Z,48.80
2019-04-29T06:54:52.467Z,48.80
2019-04-29T06:57:19.587Z,48.80
2019-04-29T06:59:47.484Z,48.80
2019-04-29T07:02:14.420Z,48.90
2019-04-29T07:04:41.161Z,49.00
2019-04-29T07:07:08.343Z,48.90
2019-04-29T07:09:35.479Z,48.90
2019-04-29T07:12:02.567Z,48.80
2019-04-29T07:14:33.386Z,49.00
2019-04-29T07:17:00.896Z,49.00
2019-04-29T07:19:26.592Z,48.90
2019-04-29T07:21:53.304Z,48.90
2019-04-29T07:24:20.349Z,48.90
2019-04-29T07:26:45.731Z,48.90
2019-04-29T07:29:12.871Z,48.90
2019-04-29T07:31:40.391Z,48.90
2019-04-29T07:34:08.546Z,48.90
2019-04-29T07:36:34.774Z,49.00
2019-04-29T07:39:01.990Z,49.00
2019-04-29T07:41:29.124Z,49.00
2019-04-29T07:43:56.329Z,49.00
2019-04-29T07:46:27.453Z,49.00
2019-04-29T07:49:01.254Z,49.00
2019-04-29T07:51:21.802Z,49.00
2019-04-29T07:53:48.969Z,49.00
2019-04-29T07:56:16.044Z,49.00
2019-04-29T07:58:43.117Z,49.00
2019-04-29T08:01:10.349Z,49.10
2019-04-29T08:03:37.480Z,49.10
2019-04-29T08:06:04.684Z,49.10
2019-04-29T08:08:31.759Z,49.10
2019-04-29T08:10:58.930Z,49.10
2019-04-29T08:13:26.241Z,49.10
2019-04-29T08:15:53.422Z,49.20
2019-04-29T08:18:20.508Z,49.10
2019-04-29T08:20:47.846Z,49.10
2019-04-29T08:23:14.975Z,49.10
2019-04-29T08:25:42.158Z,49.80
2019-04-29T08:28:09.311Z,49.20
2019-04-29T08:30:36.465Z,49.20
2019-04-29T08:33:07.510Z,49.80
2019-04-29T08:35:32.717Z,49.20
2019-04-29T08:37:58.127Z,49.20
2019-04-29T08:40:25.924Z,49.20
2019-04-29T08:42:57.642Z,49.20
2019-04-29T08:45:34.759Z,49.20
2019-04-29T08:47:59.199Z,49.20
2019-04-29T08:50:26.467Z,49.20
2019-04-29T08:52:53.716Z,49.20
2019-04-29T08:55:20.889Z,49.20
2019-04-29T08:57:48.006Z,49.20
2019-04-29T09:00:15.156Z,49.30
2019-04-29T09:02:47.302Z,49.30
2019-04-29T09:05:11.423Z,49.30
2019-04-29T09:07:36.752Z,49.30
2019-04-29T09:10:04.334Z,49.30
2019-04-29T09:12:31.509Z,49.30
2019-04-29T09:14:58.714Z,49.10
2019-04-29T09:17:26.079Z,49.30
2019-04-29T09:19:53.339Z,49.30
2019-04-29T09:22:20.755Z,49.30
2019-04-29T09:24:53.621Z,49.30
2019-04-29T09:27:20.874Z,49.20
2019-04-29T09:29:48.085Z,49.30
2019-04-29T09:32:15.174Z,49.30
2019-04-29T09:34:42.366Z,49.30
2019-04-29T09:37:09.470Z,49.30
2019-04-29T09:39:43.340Z,49.30
2019-04-29T09:42:15.696Z,49.30
2019-04-29T09:44:48.605Z,49.30
2019-04-29T09:47:15.834Z,49.20
2019-04-29T09:49:42.923Z,49.30
2019-04-29T09:52:10.111Z,49.30
2019-04-29T09:54:37.283Z,49.30
2019-04-29T09:57:04.441Z,49.30
2019-04-29T09:59:34.839Z,49.40
2019-04-29T10:02:08.376Z,49.30
2019-04-29T10:04:40.127Z,49.30
2019-04-29T10:07:07.986Z,49.30
2019-04-29T10:09:35.237Z,49.20
2019-04-29T10:12:02.411Z,49.30
2019-04-29T10:14:29.542Z,49.20
2019-04-29T10:17:03.320Z,49.30
2019-04-29T10:19:36.208Z,49.20
2019-04-29T10:22:03.439Z,49.20
2019-04-29T10:24:30.686Z,49.30
2019-04-29T10:26:57.935Z,49.30
2019-04-29T10:29:25.805Z,49.30
2019-04-29T10:31:52.400Z,49.30
2019-04-29T10:34:19.512Z,49.30
2019-04-29T10:36:46.682Z,49.30
2019-04-29T10:39:22.696Z,49.30
2019-04-29T10:41:46.758Z,49.40
2019-04-29T10:44:19.424Z,49.40
2019-04-29T10:46:54.166Z,49.40
2019-04-29T10:49:25.600Z,49.40
2019-04-29T10:51:52.731Z,49.40
2019-04-29T10:54:19.904Z,49.40
2019-04-29T10:56:47.017Z,49.30
2019-04-29T10:59:14.184Z,49.40
2019-04-29T11:02:01.069Z,49.40
2019-04-29T11:04:20.940Z,49.40
2019-04-29T11:06:48.173Z,49.40
2019-04-29T11:09:21.077Z,49.40
2019-04-29T11:11:48.310Z,49.30
2019-04-29T11:14:15.521Z,49.40
2019-04-29T11:16:46.565Z,49.40
2019-04-29T11:19:09.816Z,49.40
2019-04-29T11:21:38.917Z,49.40
2019-04-29T11:25:11.624Z,49.30
2019-04-29T11:27:43.423Z,49.40
2019-04-29T11:30:13.290Z,49.40
2019-04-29T11:32:43.518Z,49.40
2019-04-29T11:35:16.150Z,49.40
2019-04-29T11:37:43.329Z,49.40
2019-04-29T11:40:10.437Z,49.50
2019-04-29T11:42:41.628Z,49.40
2019-04-29T11:45:06.355Z,49.50
2019-04-29T11:47:33.509Z,49.40
2019-04-29T11:50:07.562Z,49.40
2019-04-29T11:52:32.475Z,49.40
2019-04-29T11:54:59.655Z,49.50
2019-04-29T11:57:40.711Z,49.50
2019-04-29T12:00:03.241Z,49.50
2019-04-29T12:02:45.552Z,49.40
2019-04-29T12:05:08.599Z,49.50
2019-04-29T12:07:34.166Z,49.50
2019-04-29T12:10:02.326Z,49.50
2019-04-29T12:12:28.514Z,49.40
2019-04-29T12:15:03.193Z,49.40
2019-04-29T12:17:34.626Z,49.50
2019-04-29T12:20:06.423Z,49.50
2019-04-29T12:22:47.398Z,49.50
2019-04-29T12:25:00.920Z,49.50
2019-04-29T12:27:29.307Z,49.60
2019-04-29T12:29:59.431Z,49.60
2019-04-29T12:32:28.058Z,49.60
2019-04-29T12:35:01.704Z,49.50
2019-04-29T12:37:37.402Z,49.50
2019-04-29T12:40:14.434Z,49.50
2019-04-29T12:42:45.026Z,49.50
2019-04-29T12:45:30.748Z,49.60
2019-04-29T12:47:57.982Z,49.60
2019-04-29T12:50:25.163Z,49.60
2019-04-29T12:52:52.301Z,49.60
2019-04-29T12:55:42.840Z,49.60
2019-04-29T12:57:51.561Z,49.60
2019-04-29T13:00:20.668Z,49.60
2019-04-29T13:03:00.274Z,49.60
2019-04-29T13:05:28.283Z,50.30
2019-04-29T13:08:03.749Z,49.60
2019-04-29T13:10:37.866Z,49.60
2019-04-29T13:13:03.626Z,49.60
2019-04-29T13:15:36.649Z,49.70
2019-04-29T13:18:13.370Z,49.70
2019-04-29T13:20:35.778Z,49.60
2019-04-29T13:23:17.124Z,49.80
2019-04-29T13:25:30.059Z,49.70
2019-04-29T13:28:03.674Z,49.70
2019-04-29T13:30:24.444Z,49.70
2019-04-29T13:32:51.693Z,49.70
2019-04-29T13:35:18.803Z,49.70
2019-04-29T13:37:45.882Z,49.70
2019-04-29T13:40:12.962Z,49.80
2019-04-29T13:42:40.133Z,49.70
2019-04-29T13:45:12.581Z,49.80
2019-04-29T13:47:40.123Z,49.70
2019-04-29T13:50:20.144Z,49.70
2019-04-29T13:52:38.316Z,49.80
2019-04-29T13:55:17.227Z,49.80
2019-04-29T13:57:32.606Z,49.70
2019-04-29T14:00:05.284Z,49.80
2019-04-29T14:02:36.979Z,49.80
2019-04-29T14:05:05.313Z,49.80
2019-04-29T14:07:32.551Z,49.80
2019-04-29T14:09:59.951Z,49.80
2019-04-29T14:12:48.580Z,50.10
2019-04-29T14:14:58.578Z,49.80
2019-04-29T14:17:26.331Z,49.80
2019-04-29T14:19:49.454Z,49.80
2019-04-29T14:22:22.399Z,49.80
2019-04-29T14:24:46.728Z,49.80
2019-04-29T14:27:24.089Z,49.80
2019-04-29T14:29:38.158Z,49.80
2019-04-29T14:32:05.327Z,49.80
2019-04-29T14:34:36.870Z,49.80
2019-04-29T14:37:18.773Z,49.80
2019-04-29T14:39:37.440Z,49.80
2019-04-29T14:42:00.690Z,49.70
2019-04-29T14:44:33.579Z,49.70
2019-04-29T14:47:06.245Z,49.70
2019-04-29T14:49:39.764Z,49.70
2019-04-29T14:52:08.173Z,49.70
2019-04-29T14:54:32.701Z,49.70
2019-04-29T14:56:59.953Z,49.70
2019-04-29T14:59:27.380Z,49.60
2019-04-29T15:02:00.351Z,49.70
2019-04-29T15:04:31.429Z,49.60
2019-04-29T15:06:58.651Z,49.60
2019-04-29T15:09:25.744Z,49.60
2019-04-29T15:11:59.002Z,49.60
2019-04-29T15:14:28.282Z,49.60
2019-04-29T15:16:59.712Z,49.60
2019-04-29T15:19:32.657Z,49.60
2019-04-29T15:22:03.651Z,49.60
2019-04-29T15:24:32.692Z,49.60
2019-04-29T15:26:58.024Z,49.60
2019-04-29T15:29:25.455Z,49.60
2019-04-29T15:31:52.617Z,49.60
2019-04-29T15:34:19.839Z,49.60
2019-04-29T15:36:46.992Z,49.50
2019-04-29T15:39:14.334Z,49.50
2019-04-29T15:41:41.408Z,49.50
2019-04-29T15:44:13.423Z,49.50
2019-04-29T15:46:46.351Z,49.50
2019-04-29T15:49:02.952Z,49.50
2019-04-29T15:51:30.065Z,49.40
2019-04-29T15:53:57.298Z,49.30
2019-04-29T15:56:28.946Z,49.40
2019-04-29T15:58:51.906Z,49.40
2019-04-29T16:01:27.040Z,49.40
2019-04-29T16:03:49.848Z,49.30
2019-04-29T16:06:21.720Z,49.40
2019-04-29T16:08:58.696Z,49.30
2019-04-29T16:11:29.292Z,49.30
2019-04-29T16:14:08.259Z,49.30
2019-04-29T16:16:21.019Z,49.30
2019-04-29T16:18:48.259Z,49.30
2019-04-29T16:21:15.436Z,49.30
2019-04-29T16:23:42.604Z,49.20
2019-04-29T16:26:09.728Z,49.20
2019-04-29T16:28:40.039Z,49.20
2019-04-29T16:31:05.202Z,49.20
2019-04-29T16:33:31.306Z,49.20
2019-04-29T16:36:04.840Z,49.20
2019-04-29T16:38:25.723Z,49.10
2019-04-29T16:40:57.489Z,49.10
2019-04-29T16:43:29.444Z,49.10
2019-04-29T16:46:01.226Z,49.10
2019-04-29T16:48:28.401Z,49.10
2019-04-29T16:50:55.642Z,49.00
2019-04-29T16:53:22.901Z,49.00
2019-04-29T16:55:49.950Z,49.00
2019-04-29T16:58:18.416Z,49.00
2019-04-29T17:00:46.506Z,48.90
2019-04-29T17:03:11.427Z,49.00
2019-04-29T17:05:38.748Z,48.90
2019-04-29T17:08:09.378Z,48.90
2019-04-29T17:10:37.800Z,48.80
2019-04-29T17:13:09.064Z,48.80
2019-04-29T17:15:32.154Z,48.80
2019-04-29T17:17:59.337Z,48.80
2019-04-29T17:20:26.579Z,48.80
2019-04-29T17:22:53.750Z,48.80
2019-04-29T17:25:21.039Z,48.70
2019-04-29T17:27:55.779Z,48.70
2019-04-29T17:30:31.519Z,48.70
2019-04-29T17:33:04.283Z,48.60
2019-04-29T17:35:32.691Z,48.60
2019-04-29T17:37:59.862Z,48.60
2019-04-29T17:40:26.974Z,48.50
2019-04-29T17:43:00.855Z,48.60
2019-04-29T17:45:31.502Z,48.50
2019-04-29T17:48:04.202Z,48.50
2019-04-29T17:50:39.262Z,48.50
2019-04-29T17:53:02.890Z,48.40
2019-04-29T17:55:40.827Z,48.50
2019-04-29T17:58:10.543Z,48.40
2019-04-29T18:00:44.791Z,48.40
2019-04-29T18:03:28.988Z,48.40
2019-04-29T18:06:00.540Z,48.20
2019-04-29T18:08:33.992Z,48.30
2019-04-29T18:11:06.549Z,48.10
2019-04-29T18:13:28.287Z,48.20
2019-04-29T18:16:03.189Z,48.10
2019-04-29T18:18:28.210Z,48.10
2019-04-29T18:21:03.121Z,48.10
2019-04-29T18:23:32.575Z,48.10
2019-04-29T18:26:06.512Z,48.00
2019-04-29T18:28:33.656Z,48.10
2019-04-29T18:31:00.822Z,47.90
2019-04-29T18:33:30.175Z,48.00
2019-04-29T18:36:03.784Z,47.90
2019-04-29T18:38:22.380Z,47.80
2019-04-29T18:40:49.617Z,47.80
2019-04-29T18:43:19.238Z,47.80
2019-04-29T18:45:55.210Z,47.70
2019-04-29T18:48:17.131Z,47.70
2019-04-29T18:50:38.907Z,47.50
2019-04-29T18:53:06.977Z,47.60
2019-04-29T18:55:32.598Z,47.60
2019-04-29T18:57:59.694Z,47.50
2019-04-29T19:00:26.874Z,47.40
2019-04-29T19:02:58.479Z,47.30
2019-04-29T19:05:26.357Z,47.30
2019-04-29T19:07:55.211Z,47.30
2019-04-29T19:10:19.199Z,47.10
2019-04-29T19:12:57.493Z,47.10
2019-04-29T19:15:15.092Z,47.10
2019-04-29T19:17:40.788Z,47.30
2019-04-29T19:20:08.630Z,47.10
2019-04-29T19:22:36.038Z,47.10
2019-04-29T19:25:02.166Z,47.00
2019-04-29T19:27:30.495Z,46.90
2019-04-29T19:29:56.975Z,46.90
2019-04-29T19:32:24.737Z,46.90
2019-04-29T19:34:54.944Z,46.80
2019-04-29T19:37:18.398Z,46.80
2019-04-29T19:39:45.523Z,46.70
2019-04-29T19:42:12.638Z,46.80
2019-04-29T19:44:39.784Z,46.70
2019-04-29T19:47:10.964Z,46.60
2019-04-29T19:49:35.872Z,46.60
2019-04-29T19:52:01.299Z,46.60
2019-04-29T19:54:28.993Z,46.60
2019-04-29T19:57:03.138Z,46.50
2019-04-29T19:59:25.620Z,46.40
2019-04-29T20:01:52.175Z,46.40
2019-04-29T20:04:26.325Z,46.40
2019-04-29T20:06:58.577Z,46.30
2019-04-29T20:09:22.693Z,46.30
2019-04-29T20:11:48.098Z,46.30
2019-04-29T20:14:20.729Z,46.20
2019-04-29T20:16:56.213Z,46.30
2019-04-29T20:19:21.448Z,46.20
2019-04-29T20:21:47.608Z,46.30
2019-04-29T20:24:17.316Z,46.40
2019-04-29T20:26:44.126Z,46.40
2019-04-29T20:29:09.039Z,46.10
2019-04-29T20:31:38.857Z,46.00
2019-04-29T20:34:03.239Z,46.10
2019-04-29T20:36:39.496Z,46.10
2019-04-29T20:38:57.509Z,46.00
2019-04-29T20:41:40.197Z,46.00
2019-04-29T20:43:51.805Z,45.90
2019-04-29T20:46:18.955Z,45.90
2019-04-29T20:48:50.149Z,45.90
2019-04-29T20:51:14.608Z,46.00
2019-04-29T20:53:44.181Z,46.00
2019-04-29T20:56:12.877Z,45.90
2019-04-29T20:58:38.137Z,46.00
2019-04-29T21:01:10.789Z,46.10
2019-04-29T21:03:33.131Z,45.90
2019-04-29T21:06:02.694Z,46.10
2019-04-29T21:08:27.431Z,45.90
2019-04-29T21:10:55.458Z,46.00
2019-04-29T21:13:56.122Z,45.80
2019-04-29T21:16:29.146Z,45.80
2019-04-29T21:18:53.217Z,45.80
2019-04-29T21:21:19.417Z,45.90
2019-04-29T21:23:48.242Z,45.90
2019-04-29T21:26:13.712Z,45.90
2019-04-29T21:28:41.771Z,45.90
2019-04-29T21:31:11.763Z,45.80
2019-04-29T21:33:35.589Z,45.70
2019-04-29T21:36:09.935Z,46.30
2019-04-29T21:38:45.049Z,45.90
2019-04-29T21:41:15.461Z,45.90
2019-04-29T21:43:40.218Z,45.70
2019-04-29T21:46:07.454Z,45.80
2019-04-29T21:48:36.900Z,45.80
2019-04-29T21:51:01.726Z,45.70
2019-04-29T21:53:31.657Z,45.70
2019-04-29T21:55:59.705Z,45.60
2019-04-29T21:58:23.298Z,45.50
2019-04-29T22:00:50.460Z,45.50
2019-04-29T22:03:19.884Z,45.50
2019-04-29T22:05:45.201Z,45.70
2019-04-29T22:08:11.941Z,45.50
2019-04-29T22:10:39.065Z,45.60
2019-04-29T22:13:06.715Z,45.50
2019-04-29T22:15:39.009Z,45.50
2019-04-29T22:18:01.647Z,45.40
2019-04-29T22:20:28.163Z,45.80
2019-04-29T22:22:55.845Z,45.50
2019-04-29T22:25:22.299Z,45.50
2019-04-29T22:27:49.402Z,45.60
2019-04-29T22:30:18.514Z,45.60
2019-04-29T22:32:46.830Z,45.40
2019-04-29T22:35:10.851Z,45.40
2019-04-29T22:37:38.474Z,45.70
2019-04-29T22:40:05.707Z,45.50
2019-04-29T22:42:38.204Z,45.70
2019-04-29T22:45:05.721Z,46.40
2019-04-29T22:47:32.575Z,45.60
2019-04-29T22:50:03.282Z,45.70
2019-04-29T22:52:29.802Z,45.30
2019-04-29T22:54:59.963Z,45.50
2019-04-29T22:57:22.946Z,45.50
2019-04-29T22:59:49.466Z,45.50
2019-04-29T23:02:15.783Z,45.50
2019-04-29T23:04:46.721Z,45.30
2019-04-29T23:07:09.946Z,45.50
2019-04-29T23:09:37.016Z,45.40
2019-04-29T23:12:05.443Z,45.50
2019-04-29T23:14:31.234Z,45.30
2019-04-29T23:16:58.414Z,45.30
2019-04-29T23:19:26.014Z,45.40
2019-04-29T23:22:03.315Z,45.50
2019-04-29T23:24:40.042Z,45.50
2019-04-29T23:27:07.199Z,45.40
2019-04-29T23:29:37.185Z,45.30
2019-04-29T23:32:04.767Z,45.40
2019-04-29T23:34:29.543Z,45.40
2019-04-29T23:36:55.787Z,45.40
2019-04-29T23:39:24.806Z,45.40
2019-04-29T23:41:50.130Z,45.20
2019-04-29T23:44:17.330Z,45.40
2019-04-29T23:46:47.256Z,45.30
2019-04-29T23:49:11.707Z,45.50
2019-04-29T23:51:38.858Z,45.40
2019-04-29T23:54:07.918Z,45.30
2019-04-29T23:56:38.588Z,45.40
2019-04-29T23:59:16.939Z,45.30
